Accueil
METAR-TAF:

METAR-TAF

Aéroports :

Fairford, Angleterre

latitude: 51-41N, longitude: 001-47W, altitude: 87 m

Observation

Le bulletin a été fait il y a 43 minutes, à 23:56 UTC
Vent 6 kt de nord-est
Température 2°C
Humidité 87%
Pression 1025 hPa
Ciel clair

METAR: EGVA 212356Z AUTO 04006KT M M CLR 02/00 A3027 RMK AO2 SLP258 60001 T00220004 10050 20022 400650014 57007 RVRNO $

Heure: 00:39 (00:39 UTC)


TAF: absent

Observations et prévisions météorologiques de plus de 4000 aéroports (messages METAR et TAF).

Les stations disponibles sont représentées par des disques jaunes et rouges sur la carte.

Passer la souris dessus pour voir le nom de la station.

Cliquer dessus pour voir les observations et prévisions météorologiques.

Pour changer de carte: cliquez sur les boutons verts avec une croix noire pour zoomer, sur le bouton vert avec un tiret pour effectuer un zoom arrière, ou sur les flèches vertes pour les cartes adjacentes.


METAR-TAF: